DW4782 Asprovalta GR current weather conditions

sailwx.info

Wind from 309 at 8 knots gusting 17

Air temperature 12.2° C
Dewpoint -3.2° C

Last reported at 2015-Apr-02 06:50 UTC.
Time now 2015-Apr-02 07:51 UTC

Location: N 40°43' E 023°43'.
View on Google Maps.

See reports from other nearby stations

  
Tides and Currents Weather Stations Pressure Air Temp Water Temp Dewpoint Dewpoint Depression Visibility Wind Speed Wind Dir Waves Ship Positions
date/time (UTC)wind fromknots sea level pressurealtimeterstation pressurevisibilityair tempwater tempwave heightnotes
2015-Apr-02 06:50 309 8 gusting 17 12.2
2015-Apr-02 06:40 311 7 gusting 12 12.2
2015-Apr-02 06:30 326 5 gusting 13 12.2
2015-Apr-02 06:20 318 4 gusting 14 11.7
2015-Apr-02 06:10 308 6 gusting 15 11.7
2015-Apr-02 06:00 309 6 gusting 15 11.1
2015-Apr-02 05:50 302 6 gusting 13 11.1
2015-Apr-02 05:40 306 6 gusting 20 11.1
2015-Apr-02 05:30 301 6 gusting 17 11.1
2015-Apr-02 05:20 306 6 gusting 13 10.6
2015-Apr-02 05:10 316 6 gusting 13 10.6
2015-Apr-02 05:00 313 6 gusting 13 10.6
2015-Apr-02 04:50 302 6 gusting 16 10.0
2015-Apr-02 04:40 305 6 gusting 13 10.0
2015-Apr-02 04:30 295 6 gusting 13 10.0
2015-Apr-02 04:20 299 6 gusting 15 10.0
2015-Apr-02 04:10 281 2 gusting 12 9.4
2015-Apr-02 04:00 200 2 gusting 3 10.0
2015-Apr-02 03:50 128 2 gusting 2 10.0
2015-Apr-02 03:40 201 2 gusting 4 10.6
2015-Apr-02 03:30 272 4 gusting 6 10.6
2015-Apr-02 03:20 284 6 gusting 14 11.1
2015-Apr-02 03:10 307 6 gusting 17 11.1
2015-Apr-02 03:00 222 2 gusting 6 11.1
2015-Apr-02 02:50 312 3 gusting 13 11.1
2015-Apr-02 02:40 334 6 gusting 13 11.1
2015-Apr-02 02:30 298 6 gusting 12 11.1
2015-Apr-02 02:20 313 10 gusting 17 11.1
2015-Apr-02 02:10 311 12 gusting 23 10.6
2015-Apr-02 02:00 306 11 gusting 25 10.6
2015-Apr-02 01:50 320 10 gusting 22 10.6
2015-Apr-02 01:40 307 8 gusting 22 10.6
2015-Apr-02 01:30 299 8 gusting 25 10.6
2015-Apr-02 01:20 300 8 gusting 19 10.6
2015-Apr-02 01:10 302 11 gusting 22 10.6
2015-Apr-02 01:00 318 9 gusting 20 10.6
2015-Apr-02 00:50 313 9 gusting 19 10.6
2015-Apr-02 00:40 306 8 gusting 18 10.6
2015-Apr-02 00:30 299 7 gusting 15 10.6
2015-Apr-02 00:20 309 8 gusting 25 10.6
2015-Apr-02 00:10 305 5 gusting 12 10.6
2015-Apr-02 00:00 292 5 gusting 13 11.1
2015-Apr-01 23:50 308 3 gusting 14 11.1
2015-Apr-01 23:40 292 3 gusting 8 11.7
2015-Apr-01 23:30 168 2 gusting 4 11.7
2015-Apr-01 23:20 230 2 gusting 9 11.7
2015-Apr-01 23:10 126 2 gusting 1 12.2
2015-Apr-01 23:00 293 1 gusting 6 12.2
2015-Apr-01 22:50 270 0 gusting 0 12.2
2015-Apr-01 22:40 288 3 gusting 6 12.8
2015-Apr-01 22:30 330 1 gusting 5 12.8
2015-Apr-01 22:20 115 3 gusting 6 12.8
2015-Apr-01 22:10 328 2 gusting 5 11.7
2015-Apr-01 22:00 248 0 gusting 4 11.1
2015-Apr-01 21:50 250 0 gusting 5 10.6
2015-Apr-01 21:40 259 10.6
2015-Apr-01 21:30 312 10.6
2015-Apr-01 21:20 260 10.0
2015-Apr-01 21:10 10.6
2015-Apr-01 21:00 10.6
2015-Apr-01 20:50 10.6
2015-Apr-01 20:40 10.6
2015-Apr-01 20:30 10.6
2015-Apr-01 20:20 10.6
2015-Apr-01 20:10 11.1
2015-Apr-01 20:00 11.1
2015-Apr-01 19:50 11.1
2015-Apr-01 19:40 11.7
2015-Apr-01 19:30 11.7
2015-Apr-01 19:20 11.7
2015-Apr-01 19:10 12.2
2015-Apr-01 19:00 12.2
2015-Apr-01 18:50 270 12.8
2015-Apr-01 18:40 12.8
2015-Apr-01 18:30 13.3
2015-Apr-01 18:20 13.3
2015-Apr-01 18:10 13.3
2015-Apr-01 18:00 270 0 gusting 0 13.9
2015-Apr-01 17:50 257 1 gusting 3 13.9
2015-Apr-01 17:40 247 0 gusting 3 14.4
2015-Apr-01 17:30 239 0 gusting 2 14.4
2015-Apr-01 17:20 271 0 gusting 3 15.0
2015-Apr-01 17:10 264 0 gusting 2 15.6
2015-Apr-01 17:00 15.6
2015-Apr-01 16:50 16.1
2015-Apr-01 16:40 16.1
2015-Apr-01 16:30 331 16.7
2015-Apr-01 16:20 16.7
2015-Apr-01 16:10 330 16.7
2015-Apr-01 16:00 17.2
2015-Apr-01 15:50 316 17.2
2015-Apr-01 15:40 316 17.2
2015-Apr-01 15:30 312 0 gusting 1 17.2
2015-Apr-01 15:20 350 17.2
2015-Apr-01 15:10 351 0 gusting 1 17.2
2015-Apr-01 15:00 065 17.2
2015-Apr-01 14:50 096 0 gusting 2 17.2
2015-Apr-01 14:40 107 17.2
2015-Apr-01 14:30 102 0 gusting 1 17.2
2015-Apr-01 14:20 109 0 gusting 4 17.2
2015-Apr-01 14:10 073 0 gusting 2 17.2
2015-Apr-01 14:00 079 1 gusting 4 17.8
2015-Apr-01 13:50 092 1 gusting 4 17.8
2015-Apr-01 13:40 107 2 gusting 4 18.3
2015-Apr-01 13:30 101 2 gusting 4 18.3
2015-Apr-01 13:20 081 1 gusting 4 18.3
2015-Apr-01 13:10 117 2 gusting 6 18.3
2015-Apr-01 13:00 135 1 gusting 4 18.3
2015-Apr-01 12:50 101 1 gusting 4 18.3
2015-Apr-01 12:40 105 2 gusting 4 18.3
2015-Apr-01 12:30 133 2 gusting 6 18.3
2015-Apr-01 12:20 105 1 gusting 5 18.3
2015-Apr-01 12:10 107 2 gusting 5 18.3
2015-Apr-01 12:00 087 1 gusting 5 18.3
2015-Apr-01 11:50 089 2 gusting 5 17.8
2015-Apr-01 11:40 117 2 gusting 6 17.8
2015-Apr-01 11:30 100 1 gusting 5 17.8
2015-Apr-01 11:20 102 2 gusting 6 17.8
2015-Apr-01 11:10 103 1 gusting 4 17.8
2015-Apr-01 11:00 097 1 gusting 4 17.8
2015-Apr-01 10:50 134 2 gusting 5 17.2
2015-Apr-01 10:40 106 1 gusting 4 17.2
2015-Apr-01 10:30 089 2 gusting 5 17.2
2015-Apr-01 10:20 092 2 gusting 6 17.2
2015-Apr-01 10:10 109 2 gusting 4 17.2
2015-Apr-01 10:00 159 1 gusting 4 17.2
2015-Apr-01 09:50 109 2 gusting 3 17.2
2015-Apr-01 09:40 121 2 gusting 6 17.2
2015-Apr-01 09:30 124 2 gusting 4 16.7
2015-Apr-01 09:20 131 1 gusting 5 16.7
2015-Apr-01 09:10 153 1 gusting 4 16.7
2015-Apr-01 09:00 111 2 gusting 4 16.7
2015-Apr-01 08:50 100 1 gusting 6 16.7
2015-Apr-01 08:40 112 1 gusting 4 16.7
2015-Apr-01 08:30 127 1 gusting 4 16.7
2015-Apr-01 08:20 126 1 gusting 6 16.7
2015-Apr-01 08:10 138 1 gusting 2 16.1
2015-Apr-01 08:00 103 1 gusting 2 16.7
2015-Apr-01 07:50 094 0 gusting 4 16.7
2015-Apr-01 07:40 113 1 gusting 3 16.7
2015-Apr-01 07:30 140 1 gusting 3 16.7
2015-Apr-01 07:20 104 1 gusting 4 16.1
2015-Apr-01 07:10 153 1 gusting 2 16.1
2015-Apr-01 07:00 131 1 gusting 4 16.1
2015-Apr-01 06:50 098 0 gusting 4 16.1
2015-Apr-01 06:40 145 0 gusting 1 15.6
2015-Apr-01 06:30 124 0 gusting 2 15.0
2015-Apr-01 06:20 161 14.4
2015-Apr-01 06:10 186 0 gusting 1 13.3
2015-Apr-01 06:00 181 0 gusting 3 12.8
2015-Apr-01 05:50 139 0 gusting 3 12.2
2015-Apr-01 05:40 208 11.7
2015-Apr-01 05:30 10.6
2015-Apr-01 05:20 9.4
2015-Apr-01 05:10 255 8.9
2015-Apr-01 05:00 273 7.8
2015-Apr-01 04:50 7.2
2015-Apr-01 04:40 7.2
2015-Apr-01 04:30 7.2
2015-Apr-01 04:20 7.2
2015-Apr-01 04:10 273 7.2
2015-Apr-01 04:00 273 7.8
2015-Apr-01 03:50 7.8
2015-Apr-01 03:40 273 7.8
2015-Apr-01 03:30 7.8
2015-Apr-01 03:20 273 7.8
2015-Apr-01 03:10 285 7.8
2015-Apr-01 03:00 270 0 gusting 2 8.3
2015-Apr-01 02:50 289 8.3
2015-Apr-01 02:40 289 8.3
2015-Apr-01 02:30 290 8.3
2015-Apr-01 02:20 8.3
2015-Apr-01 02:10 284 8.3
2015-Apr-01 02:00 279 8.3
2015-Apr-01 01:50 279 8.3
2015-Apr-01 01:40 8.9
2015-Apr-01 01:30 8.9
2015-Apr-01 01:20 8.9
2015-Apr-01 01:10 8.9
2015-Apr-01 01:00 9.4
2015-Apr-01 00:50 9.4
2015-Apr-01 00:40 9.4
2015-Apr-01 00:30 279 10.0
2015-Apr-01 00:20 279 10.0
2015-Apr-01 00:10 290 0 gusting 0 10.0
2015-Apr-01 00:00 308 9.4
2015-Mar-31 23:50 299 0 gusting 1 9.4
2015-Mar-31 23:40 329 10.0
2015-Mar-31 23:30 10.0
2015-Mar-31 23:20 10.6
2015-Mar-31 23:10 10.6
2015-Mar-31 23:00 297 10.6
2015-Mar-31 22:50 304 10.6
2015-Mar-31 22:40 304 10.6
2015-Mar-31 22:30 314 10.6
2015-Mar-31 22:20 315 0 gusting 2 10.6
2015-Mar-31 22:10 312 0 gusting 1 10.0
2015-Mar-31 22:00 324 10.0
2015-Mar-31 21:50 323 9.4
2015-Mar-31 21:40 266 9.4
2015-Mar-31 21:30 266 9.4
2015-Mar-31 21:20 310 9.4
2015-Mar-31 21:10 309 9.4
2015-Mar-31 21:00 9.4
2015-Mar-31 20:50 251 9.4
2015-Mar-31 20:40 10.0
2015-Mar-31 20:30 10.0
2015-Mar-31 20:20 10.0
2015-Mar-31 20:10 252 10.0
2015-Mar-31 20:00 10.6
2015-Mar-31 19:50 252 10.6
2015-Mar-31 19:40 11.1
2015-Mar-31 19:30 11.1
2015-Mar-31 19:20 318 11.7
2015-Mar-31 19:10 11.7
2015-Mar-31 19:00 12.2
2015-Mar-31 18:50 12.2
2015-Mar-31 18:40 12.8
2015-Mar-31 18:30 321 12.8
2015-Mar-31 18:20 13.3
2015-Mar-31 18:10 321 13.3
2015-Mar-31 18:00 321 13.3
2015-Mar-31 17:50 323 13.3
2015-Mar-31 17:40 312 1 gusting 4 13.3
2015-Mar-31 17:30 336 1 gusting 3 13.9
2015-Mar-31 17:20 239 14.4
2015-Mar-31 17:10 018 14.4
2015-Mar-31 17:00 018 14.4
2015-Mar-31 16:50 340 1 gusting 3 15.0
2015-Mar-31 16:40 346 0 gusting 3 15.6
2015-Mar-31 16:30 348 1 gusting 3 15.6
2015-Mar-31 16:20 342 1 gusting 4 16.1
2015-Mar-31 16:10 357 0 gusting 4 16.7
2015-Mar-31 16:00 024 1 gusting 3 16.7
2015-Mar-31 15:50 048 1 gusting 5 17.2
2015-Mar-31 15:40 043 2 gusting 4 17.8
2015-Mar-31 15:30 039 3 gusting 6 18.3
2015-Mar-31 15:20 027 4 gusting 8 18.9
2015-Mar-31 15:10 040 4 gusting 8 19.4
2015-Mar-31 15:00 047 3 gusting 6 19.4
2015-Mar-31 14:50 021 2 gusting 6 20.0
2015-Mar-31 14:40 019 3 gusting 6 20.0
2015-Mar-31 14:30 049 3 gusting 6 20.6
2015-Mar-31 14:20 043 1 gusting 6 21.7
2015-Mar-31 14:10 036 1 gusting 6 22.2
2015-Mar-31 14:00 235 2 gusting 6 22.8
2015-Mar-31 13:50 188 3 gusting 6 22.8
2015-Mar-31 13:40 189 2 gusting 6 22.8
2015-Mar-31 13:30 213 3 gusting 7 22.2
2015-Mar-31 13:20 211 3 gusting 5 22.2
2015-Mar-31 13:10 207 5 gusting 7 22.2
2015-Mar-31 13:00 219 6 gusting 12 22.2
2015-Mar-31 12:50 243 3 gusting 9 22.2
2015-Mar-31 12:40 226 5 gusting 10 21.7
2015-Mar-31 12:30 189 4 gusting 12 20.6
2015-Mar-31 12:20 194 3 gusting 6 20.0
2015-Mar-31 12:10 239 4 gusting 8 20.6
2015-Mar-31 12:00 231 5 gusting 9 21.1
2015-Mar-31 11:50 229 5 gusting 11 21.7
2015-Mar-31 11:40 208 4 gusting 8 21.7
2015-Mar-31 11:30 233 5 gusting 10 21.7
2015-Mar-31 11:20 197 5 gusting 13 21.1
2015-Mar-31 11:10 212 5 gusting 12 20.6
2015-Mar-31 11:00 210 5 gusting 13 20.0
2015-Mar-31 10:50 194 6 gusting 9 20.0
2015-Mar-31 10:40 184 5 gusting 11 20.6
2015-Mar-31 10:30 172 4 gusting 11 20.0
2015-Mar-31 10:20 174 4 gusting 11 20.6
2015-Mar-31 10:10 175 4 gusting 11 20.6
2015-Mar-31 10:00 171 3 gusting 6 20.0
2015-Mar-31 09:50 193 4 gusting 6 20.0
2015-Mar-31 09:40 200 3 gusting 11 20.0
2015-Mar-31 09:30 183 3 gusting 6 19.4
2015-Mar-31 09:20 183 3 gusting 7 19.4
2015-Mar-31 09:10 183 3 gusting 6 19.4
2015-Mar-31 09:00 166 2 gusting 7 19.4
2015-Mar-31 08:50 150 1 gusting 5 19.4
2015-Mar-31 08:40 013 1 gusting 4 19.4
2015-Mar-31 08:30 340 1 gusting 4 18.9
2015-Mar-31 08:20 315 3 gusting 7 18.3
2015-Mar-31 08:10 313 3 gusting 8 18.3
2015-Mar-31 08:00 326 3 gusting 6 17.8
2015-Mar-31 07:50 298 5 gusting 6 17.8
2015-Mar-31 07:40 310 4 gusting 9 17.2
2015-Mar-31 07:30 304 4 gusting 10 16.7
2015-Mar-31 07:20 300 5 gusting 8 15.6
2015-Mar-31 07:10 304 6 gusting 14 15.6
2015-Mar-31 07:00 322 7 gusting 11 15.0